sensor_id;sensor_type;location;lat;lon;timestamp;P1;durP1;ratioP1;P2;durP2;ratioP2
74963;SDS011;63521;51.900;4.748;2023-01-29T00:01:27;4.00;;;1.77;;
74963;SDS011;63521;51.900;4.748;2023-01-29T00:03:54;3.55;;;1.85;;
74963;SDS011;63521;51.900;4.748;2023-01-29T00:06:20;3.80;;;1.80;;
74963;SDS011;63521;51.900;4.748;2023-01-29T00:08:49;3.50;;;1.58;;
74963;SDS011;63521;51.900;4.748;2023-01-29T00:11:15;3.25;;;2.05;;
74963;SDS011;63521;51.900;4.748;2023-01-29T00:13:41;2.90;;;1.70;;
74963;SDS011;63521;51.900;4.748;2023-01-29T00:16:07;5.13;;;2.20;;
74963;SDS011;63521;51.900;4.748;2023-01-29T00:18:33;4.22;;;1.92;;
74963;SDS011;63521;51.900;4.748;2023-01-29T00:21:02;4.53;;;1.77;;
74963;SDS011;63521;51.900;4.748;2023-01-29T00:23:27;4.45;;;2.00;;
74963;SDS011;63521;51.900;4.748;2023-01-29T00:25:53;3.70;;;1.88;;
74963;SDS011;63521;51.900;4.748;2023-01-29T00:28:19;2.65;;;1.50;;
74963;SDS011;63521;51.900;4.748;2023-01-29T00:30:44;3.50;;;1.88;;
74963;SDS011;63521;51.900;4.748;2023-01-29T00:33:10;3.13;;;1.63;;
74963;SDS011;63521;51.900;4.748;2023-01-29T00:35:38;2.92;;;1.60;;
74963;SDS011;63521;51.900;4.748;2023-01-29T00:38:04;3.85;;;2.00;;
74963;SDS011;63521;51.900;4.748;2023-01-29T00:40:30;3.13;;;1.65;;
74963;SDS011;63521;51.900;4.748;2023-01-29T00:43:15;4.30;;;1.98;;
74963;SDS011;63521;51.900;4.748;2023-01-29T00:46:00;3.20;;;1.85;;
74963;SDS011;63521;51.900;4.748;2023-01-29T00:48:25;3.50;;;1.55;;
74963;SDS011;63521;51.900;4.748;2023-01-29T00:50:51;3.78;;;1.88;;
74963;SDS011;63521;51.900;4.748;2023-01-29T00:53:16;4.63;;;1.75;;
74963;SDS011;63521;51.900;4.748;2023-01-29T00:55:43;3.60;;;1.80;;
74963;SDS011;63521;51.900;4.748;2023-01-29T00:58:09;3.33;;;1.75;;
74963;SDS011;63521;51.900;4.748;2023-01-29T01:00:34;3.42;;;1.60;;
74963;SDS011;63521;51.900;4.748;2023-01-29T01:02:59;4.07;;;1.70;;
74963;SDS011;63521;51.900;4.748;2023-01-29T01:05:31;3.63;;;1.65;;
74963;SDS011;63521;51.900;4.748;2023-01-29T01:07:57;3.78;;;1.80;;
74963;SDS011;63521;51.900;4.748;2023-01-29T01:10:30;5.25;;;1.90;;
74963;SDS011;63521;51.900;4.748;2023-01-29T01:13:00;2.92;;;1.60;;
74963;SDS011;63521;51.900;4.748;2023-01-29T01:15:33;3.28;;;1.90;;
74963;SDS011;63521;51.900;4.748;2023-01-29T01:18:00;5.10;;;2.28;;
74963;SDS011;63521;51.900;4.748;2023-01-29T01:20:27;3.72;;;2.15;;
74963;SDS011;63521;51.900;4.748;2023-01-29T01:22:54;3.20;;;1.98;;
74963;SDS011;63521;51.900;4.748;2023-01-29T01:25:23;3.75;;;1.92;;
74963;SDS011;63521;51.900;4.748;2023-01-29T01:27:53;3.42;;;2.00;;
74963;SDS011;63521;51.900;4.748;2023-01-29T01:30:19;3.88;;;1.80;;
74963;SDS011;63521;51.900;4.748;2023-01-29T01:32:45;4.28;;;1.90;;
74963;SDS011;63521;51.900;4.748;2023-01-29T01:35:11;3.40;;;1.98;;
74963;SDS011;63521;51.900;4.748;2023-01-29T01:37:39;3.88;;;2.28;;
74963;SDS011;63521;51.900;4.748;2023-01-29T01:40:06;3.13;;;1.67;;
74963;SDS011;63521;51.900;4.748;2023-01-29T01:42:37;3.47;;;2.10;;
74963;SDS011;63521;51.900;4.748;2023-01-29T01:45:04;4.15;;;1.85;;
74963;SDS011;63521;51.900;4.748;2023-01-29T01:47:41;4.28;;;1.90;;
74963;SDS011;63521;51.900;4.748;2023-01-29T01:50:13;4.90;;;1.90;;
74963;SDS011;63521;51.900;4.748;2023-01-29T01:52:43;3.92;;;1.85;;
74963;SDS011;63521;51.900;4.748;2023-01-29T01:55:12;3.97;;;1.80;;
74963;SDS011;63521;51.900;4.748;2023-01-29T01:57:39;4.63;;;2.03;;
74963;SDS011;63521;51.900;4.748;2023-01-29T02:00:07;3.80;;;1.98;;
74963;SDS011;63521;51.900;4.748;2023-01-29T02:02:36;2.95;;;1.50;;
74963;SDS011;63521;51.900;4.748;2023-01-29T02:05:21;4.13;;;1.83;;
74963;SDS011;63521;51.900;4.748;2023-01-29T02:08:07;4.35;;;1.90;;
74963;SDS011;63521;51.900;4.748;2023-01-29T02:10:52;4.55;;;1.77;;
74963;SDS011;63521;51.900;4.748;2023-01-29T02:13:17;3.80;;;1.85;;
74963;SDS011;63521;51.900;4.748;2023-01-29T02:15:46;4.65;;;2.17;;
74963;SDS011;63521;51.900;4.748;2023-01-29T02:18:15;3.90;;;2.05;;
74963;SDS011;63521;51.900;4.748;2023-01-29T02:20:43;4.00;;;1.98;;
74963;SDS011;63521;51.900;4.748;2023-01-29T02:26:14;4.45;;;2.00;;
74963;SDS011;63521;51.900;4.748;2023-01-29T02:28:50;3.53;;;1.77;;
74963;SDS011;63521;51.900;4.748;2023-01-29T02:31:27;3.47;;;1.67;;
74963;SDS011;63521;51.900;4.748;2023-01-29T02:36:29;4.30;;;2.22;;
74963;SDS011;63521;51.900;4.748;2023-01-29T02:41:52;4.28;;;2.05;;
74963;SDS011;63521;51.900;4.748;2023-01-29T02:52:17;4.53;;;2.50;;
74963;SDS011;63521;51.900;4.748;2023-01-29T02:54:46;5.35;;;2.50;;
74963;SDS011;63521;51.900;4.748;2023-01-29T02:57:23;3.72;;;2.10;;
74963;SDS011;63521;51.900;4.748;2023-01-29T03:00:04;4.18;;;2.17;;
74963;SDS011;63521;51.900;4.748;2023-01-29T03:02:42;4.82;;;2.00;;
74963;SDS011;63521;51.900;4.748;2023-01-29T03:05:16;4.22;;;1.90;;
74963;SDS011;63521;51.900;4.748;2023-01-29T03:07:52;5.18;;;2.10;;
74963;SDS011;63521;51.900;4.748;2023-01-29T03:10:39;5.60;;;2.33;;
74963;SDS011;63521;51.900;4.748;2023-01-29T03:13:32;5.68;;;2.50;;
74963;SDS011;63521;51.900;4.748;2023-01-29T03:16:01;4.03;;;1.88;;
74963;SDS011;63521;51.900;4.748;2023-01-29T03:18:32;4.63;;;2.08;;
74963;SDS011;63521;51.900;4.748;2023-01-29T03:21:06;5.53;;;2.25;;
74963;SDS011;63521;51.900;4.748;2023-01-29T03:23:54;5.03;;;2.40;;
74963;SDS011;63521;51.900;4.748;2023-01-29T03:26:40;3.83;;;2.20;;
74963;SDS011;63521;51.900;4.748;2023-01-29T03:29:26;4.63;;;2.30;;
74963;SDS011;63521;51.900;4.748;2023-01-29T03:32:17;4.93;;;2.42;;
74963;SDS011;63521;51.900;4.748;2023-01-29T03:34:45;3.85;;;1.80;;
74963;SDS011;63521;51.900;4.748;2023-01-29T03:37:20;4.55;;;2.15;;
74963;SDS011;63521;51.900;4.748;2023-01-29T03:39:50;5.18;;;2.00;;
74963;SDS011;63521;51.900;4.748;2023-01-29T03:45:51;4.25;;;2.00;;
74963;SDS011;63521;51.900;4.748;2023-01-29T03:48:32;5.40;;;2.60;;
74963;SDS011;63521;51.900;4.748;2023-01-29T03:59:01;5.63;;;2.20;;
74963;SDS011;63521;51.900;4.748;2023-01-29T04:04:38;4.82;;;2.42;;
74963;SDS011;63521;51.900;4.748;2023-01-29T04:07:11;5.03;;;2.30;;
74963;SDS011;63521;51.900;4.748;2023-01-29T04:09:40;4.57;;;2.17;;
74963;SDS011;63521;51.900;4.748;2023-01-29T04:12:10;4.90;;;2.45;;
74963;SDS011;63521;51.900;4.748;2023-01-29T04:14:37;6.03;;;2.55;;
74963;SDS011;63521;51.900;4.748;2023-01-29T04:17:08;5.10;;;2.25;;
74963;SDS011;63521;51.900;4.748;2023-01-29T04:19:36;5.25;;;2.50;;
74963;SDS011;63521;51.900;4.748;2023-01-29T04:22:04;7.10;;;2.78;;
74963;SDS011;63521;51.900;4.748;2023-01-29T04:24:34;6.70;;;2.50;;
74963;SDS011;63521;51.900;4.748;2023-01-29T04:35:42;4.50;;;2.40;;
74963;SDS011;63521;51.900;4.748;2023-01-29T04:44:32;5.85;;;2.78;;
74963;SDS011;63521;51.900;4.748;2023-01-29T04:50:21;5.57;;;2.45;;
74963;SDS011;63521;51.900;4.748;2023-01-29T05:00:56;6.78;;;2.70;;
74963;SDS011;63521;51.900;4.748;2023-01-29T05:03:22;6.57;;;2.85;;
74963;SDS011;63521;51.900;4.748;2023-01-29T05:05:49;5.35;;;2.58;;
74963;SDS011;63521;51.900;4.748;2023-01-29T05:08:16;5.30;;;2.30;;
74963;SDS011;63521;51.900;4.748;2023-01-29T05:10:44;7.13;;;3.15;;
74963;SDS011;63521;51.900;4.748;2023-01-29T05:13:14;5.25;;;2.65;;
74963;SDS011;63521;51.900;4.748;2023-01-29T05:15:43;5.22;;;2.72;;
74963;SDS011;63521;51.900;4.748;2023-01-29T05:18:12;6.25;;;2.90;;
74963;SDS011;63521;51.900;4.748;2023-01-29T05:20:38;6.22;;;3.05;;
74963;SDS011;63521;51.900;4.748;2023-01-29T05:23:09;7.57;;;3.17;;
74963;SDS011;63521;51.900;4.748;2023-01-29T05:25:40;6.95;;;3.35;;
74963;SDS011;63521;51.900;4.748;2023-01-29T05:28:05;5.70;;;3.00;;
74963;SDS011;63521;51.900;4.748;2023-01-29T05:30:36;5.90;;;3.03;;
74963;SDS011;63521;51.900;4.748;2023-01-29T05:33:02;5.47;;;3.03;;
74963;SDS011;63521;51.900;4.748;2023-01-29T05:35:28;7.72;;;3.53;;
74963;SDS011;63521;51.900;4.748;2023-01-29T05:37:55;6.45;;;3.33;;
74963;SDS011;63521;51.900;4.748;2023-01-29T05:40:21;7.53;;;2.95;;
74963;SDS011;63521;51.900;4.748;2023-01-29T05:42:50;5.47;;;3.25;;
74963;SDS011;63521;51.900;4.748;2023-01-29T05:45:17;4.97;;;2.80;;
74963;SDS011;63521;51.900;4.748;2023-01-29T05:47:43;8.30;;;3.38;;
74963;SDS011;63521;51.900;4.748;2023-01-29T05:50:08;7.45;;;3.17;;
74963;SDS011;63521;51.900;4.748;2023-01-29T05:52:34;7.15;;;3.47;;
74963;SDS011;63521;51.900;4.748;2023-01-29T05:55:00;7.03;;;3.30;;
74963;SDS011;63521;51.900;4.748;2023-01-29T05:57:25;7.13;;;3.38;;
74963;SDS011;63521;51.900;4.748;2023-01-29T05:59:51;8.95;;;3.80;;
74963;SDS011;63521;51.900;4.748;2023-01-29T06:02:16;6.75;;;3.28;;
74963;SDS011;63521;51.900;4.748;2023-01-29T06:04:42;6.97;;;3.40;;
74963;SDS011;63521;51.900;4.748;2023-01-29T06:07:08;7.80;;;3.30;;
74963;SDS011;63521;51.900;4.748;2023-01-29T06:09:33;7.13;;;3.50;;
74963;SDS011;63521;51.900;4.748;2023-01-29T06:11:59;7.32;;;3.08;;
74963;SDS011;63521;51.900;4.748;2023-01-29T06:14:24;8.00;;;3.80;;
74963;SDS011;63521;51.900;4.748;2023-01-29T06:16:52;6.95;;;3.08;;
74963;SDS011;63521;51.900;4.748;2023-01-29T06:19:18;8.35;;;3.70;;
74963;SDS011;63521;51.900;4.748;2023-01-29T06:21:44;7.35;;;3.33;;
74963;SDS011;63521;51.900;4.748;2023-01-29T06:24:10;8.70;;;4.03;;
74963;SDS011;63521;51.900;4.748;2023-01-29T06:26:35;9.85;;;3.63;;
74963;SDS011;63521;51.900;4.748;2023-01-29T06:29:01;6.78;;;3.53;;
74963;SDS011;63521;51.900;4.748;2023-01-29T06:31:26;7.25;;;3.63;;
74963;SDS011;63521;51.900;4.748;2023-01-29T06:33:52;8.77;;;3.92;;
74963;SDS011;63521;51.900;4.748;2023-01-29T06:36:23;9.07;;;3.90;;
74963;SDS011;63521;51.900;4.748;2023-01-29T06:39:13;9.15;;;3.80;;
74963;SDS011;63521;51.900;4.748;2023-01-29T06:42:05;8.30;;;3.85;;
74963;SDS011;63521;51.900;4.748;2023-01-29T06:44:31;8.32;;;4.05;;
74963;SDS011;63521;51.900;4.748;2023-01-29T06:47:02;8.38;;;3.67;;
74963;SDS011;63521;51.900;4.748;2023-01-29T06:49:39;8.02;;;4.18;;
74963;SDS011;63521;51.900;4.748;2023-01-29T06:55:14;8.63;;;3.55;;
74963;SDS011;63521;51.900;4.748;2023-01-29T06:57:45;7.30;;;3.83;;
74963;SDS011;63521;51.900;4.748;2023-01-29T07:00:13;7.47;;;3.72;;
74963;SDS011;63521;51.900;4.748;2023-01-29T07:02:42;9.82;;;4.10;;
74963;SDS011;63521;51.900;4.748;2023-01-29T07:05:07;9.07;;;4.00;;
74963;SDS011;63521;51.900;4.748;2023-01-29T07:07:34;10.13;;;4.22;;
74963;SDS011;63521;51.900;4.748;2023-01-29T07:10:00;8.98;;;4.40;;
74963;SDS011;63521;51.900;4.748;2023-01-29T07:12:26;10.05;;;4.28;;
74963;SDS011;63521;51.900;4.748;2023-01-29T07:14:51;9.07;;;4.43;;
74963;SDS011;63521;51.900;4.748;2023-01-29T07:17:17;9.20;;;4.50;;
74963;SDS011;63521;51.900;4.748;2023-01-29T07:19:42;8.10;;;4.35;;
74963;SDS011;63521;51.900;4.748;2023-01-29T07:22:07;11.10;;;5.13;;
74963;SDS011;63521;51.900;4.748;2023-01-29T07:24:33;9.38;;;4.53;;
74963;SDS011;63521;51.900;4.748;2023-01-29T07:26:58;8.93;;;4.53;;
74963;SDS011;63521;51.900;4.748;2023-01-29T07:29:24;11.95;;;4.63;;
74963;SDS011;63521;51.900;4.748;2023-01-29T07:31:49;9.98;;;5.28;;
74963;SDS011;63521;51.900;4.748;2023-01-29T07:34:15;7.88;;;3.78;;
74963;SDS011;63521;51.900;4.748;2023-01-29T07:36:40;10.70;;;4.70;;
74963;SDS011;63521;51.900;4.748;2023-01-29T07:39:06;10.20;;;4.78;;
74963;SDS011;63521;51.900;4.748;2023-01-29T07:41:31;9.45;;;4.55;;
74963;SDS011;63521;51.900;4.748;2023-01-29T07:43:56;10.82;;;5.20;;
74963;SDS011;63521;51.900;4.748;2023-01-29T07:46:22;9.25;;;4.57;;
74963;SDS011;63521;51.900;4.748;2023-01-29T07:48:48;9.13;;;4.65;;
74963;SDS011;63521;51.900;4.748;2023-01-29T07:51:14;10.70;;;4.22;;
74963;SDS011;63521;51.900;4.748;2023-01-29T07:53:41;11.85;;;5.03;;
74963;SDS011;63521;51.900;4.748;2023-01-29T07:56:08;11.25;;;4.50;;
74963;SDS011;63521;51.900;4.748;2023-01-29T07:58:33;7.55;;;3.88;;
74963;SDS011;63521;51.900;4.748;2023-01-29T08:00:59;9.15;;;4.30;;
74963;SDS011;63521;51.900;4.748;2023-01-29T08:03:24;8.95;;;4.82;;
74963;SDS011;63521;51.900;4.748;2023-01-29T08:05:50;7.22;;;4.68;;
74963;SDS011;63521;51.900;4.748;2023-01-29T08:08:15;9.15;;;4.20;;
74963;SDS011;63521;51.900;4.748;2023-01-29T08:10:41;10.95;;;5.35;;
74963;SDS011;63521;51.900;4.748;2023-01-29T08:13:07;10.05;;;4.60;;
74963;SDS011;63521;51.900;4.748;2023-01-29T08:15:33;9.70;;;4.95;;
74963;SDS011;63521;51.900;4.748;2023-01-29T08:17:59;8.18;;;4.40;;
74963;SDS011;63521;51.900;4.748;2023-01-29T08:20:25;7.93;;;4.28;;
74963;SDS011;63521;51.900;4.748;2023-01-29T08:23:00;10.02;;;4.75;;
74963;SDS011;63521;51.900;4.748;2023-01-29T08:25:27;10.10;;;4.43;;
74963;SDS011;63521;51.900;4.748;2023-01-29T08:27:54;9.55;;;4.88;;
74963;SDS011;63521;51.900;4.748;2023-01-29T08:30:21;9.95;;;4.63;;
74963;SDS011;63521;51.900;4.748;2023-01-29T08:32:47;10.43;;;5.03;;
74963;SDS011;63521;51.900;4.748;2023-01-29T08:35:13;10.80;;;5.07;;
74963;SDS011;63521;51.900;4.748;2023-01-29T08:37:38;11.75;;;5.40;;
74963;SDS011;63521;51.900;4.748;2023-01-29T08:40:04;8.90;;;4.50;;
74963;SDS011;63521;51.900;4.748;2023-01-29T08:42:30;10.35;;;5.00;;
74963;SDS011;63521;51.900;4.748;2023-01-29T08:44:55;9.70;;;4.60;;
74963;SDS011;63521;51.900;4.748;2023-01-29T08:47:20;11.30;;;5.28;;
74963;SDS011;63521;51.900;4.748;2023-01-29T08:49:46;11.80;;;5.35;;
74963;SDS011;63521;51.900;4.748;2023-01-29T08:52:11;12.73;;;5.25;;
74963;SDS011;63521;51.900;4.748;2023-01-29T08:54:37;9.93;;;4.75;;
74963;SDS011;63521;51.900;4.748;2023-01-29T08:57:02;9.73;;;5.05;;
74963;SDS011;63521;51.900;4.748;2023-01-29T08:59:28;10.35;;;5.22;;
74963;SDS011;63521;51.900;4.748;2023-01-29T09:05:17;9.15;;;4.50;;
74963;SDS011;63521;51.900;4.748;2023-01-29T09:07:43;10.82;;;4.68;;
74963;SDS011;63521;51.900;4.748;2023-01-29T09:10:08;9.50;;;4.38;;
74963;SDS011;63521;51.900;4.748;2023-01-29T09:12:34;10.50;;;5.30;;
74963;SDS011;63521;51.900;4.748;2023-01-29T09:14:59;10.75;;;4.93;;
74963;SDS011;63521;51.900;4.748;2023-01-29T09:17:25;9.50;;;4.93;;
74963;SDS011;63521;51.900;4.748;2023-01-29T09:19:50;8.60;;;4.43;;
74963;SDS011;63521;51.900;4.748;2023-01-29T09:22:17;10.82;;;5.05;;
74963;SDS011;63521;51.900;4.748;2023-01-29T09:24:42;10.82;;;5.35;;
74963;SDS011;63521;51.900;4.748;2023-01-29T09:27:08;9.32;;;5.00;;
74963;SDS011;63521;51.900;4.748;2023-01-29T09:29:34;10.98;;;5.53;;
74963;SDS011;63521;51.900;4.748;2023-01-29T09:32:00;12.73;;;5.72;;
74963;SDS011;63521;51.900;4.748;2023-01-29T09:34:25;13.43;;;5.28;;
74963;SDS011;63521;51.900;4.748;2023-01-29T09:36:51;11.80;;;5.55;;
74963;SDS011;63521;51.900;4.748;2023-01-29T09:39:17;10.55;;;5.22;;
74963;SDS011;63521;51.900;4.748;2023-01-29T09:47:15;11.13;;;4.85;;
74963;SDS011;63521;51.900;4.748;2023-01-29T09:49:51;12.18;;;5.47;;
74963;SDS011;63521;51.900;4.748;2023-01-29T09:52:25;13.32;;;5.68;;
74963;SDS011;63521;51.900;4.748;2023-01-29T09:55:01;12.80;;;5.45;;
74963;SDS011;63521;51.900;4.748;2023-01-29T09:57:49;13.07;;;5.90;;
74963;SDS011;63521;51.900;4.748;2023-01-29T10:00:23;10.00;;;5.32;;
74963;SDS011;63521;51.900;4.748;2023-01-29T10:03:17;10.40;;;5.82;;
74963;SDS011;63521;51.900;4.748;2023-01-29T10:06:04;9.88;;;4.85;;
74963;SDS011;63521;51.900;4.748;2023-01-29T10:11:57;13.45;;;5.70;;
74963;SDS011;63521;51.900;4.748;2023-01-29T10:14:44;13.05;;;5.78;;
74963;SDS011;63521;51.900;4.748;2023-01-29T10:20:27;11.15;;;5.28;;
74963;SDS011;63521;51.900;4.748;2023-01-29T10:23:15;11.73;;;5.40;;
74963;SDS011;63521;51.900;4.748;2023-01-29T10:25:42;12.35;;;5.90;;
74963;SDS011;63521;51.900;4.748;2023-01-29T10:28:16;12.75;;;5.78;;
74963;SDS011;63521;51.900;4.748;2023-01-29T10:30:49;13.88;;;6.10;;
74963;SDS011;63521;51.900;4.748;2023-01-29T10:33:19;12.82;;;6.28;;
74963;SDS011;63521;51.900;4.748;2023-01-29T10:35:50;12.98;;;6.35;;
74963;SDS011;63521;51.900;4.748;2023-01-29T10:43:51;14.80;;;6.57;;
74963;SDS011;63521;51.900;4.748;2023-01-29T10:54:21;13.45;;;5.97;;
74963;SDS011;63521;51.900;4.748;2023-01-29T10:57:11;15.40;;;6.55;;
74963;SDS011;63521;51.900;4.748;2023-01-29T11:02:18;12.25;;;6.07;;
74963;SDS011;63521;51.900;4.748;2023-01-29T11:04:46;15.95;;;7.22;;
74963;SDS011;63521;51.900;4.748;2023-01-29T11:07:11;13.30;;;6.82;;
74963;SDS011;63521;51.900;4.748;2023-01-29T11:10:23;13.65;;;6.85;;
74963;SDS011;63521;51.900;4.748;2023-01-29T11:12:34;14.65;;;6.45;;
74963;SDS011;63521;51.900;4.748;2023-01-29T11:18:06;13.77;;;6.05;;
74963;SDS011;63521;51.900;4.748;2023-01-29T11:20:38;11.73;;;6.43;;
74963;SDS011;63521;51.900;4.748;2023-01-29T11:23:17;15.93;;;7.18;;
74963;SDS011;63521;51.900;4.748;2023-01-29T11:25:52;15.68;;;7.18;;
74963;SDS011;63521;51.900;4.748;2023-01-29T11:28:34;13.88;;;5.88;;
74963;SDS011;63521;51.900;4.748;2023-01-29T11:33:51;14.35;;;6.65;;
74963;SDS011;63521;51.900;4.748;2023-01-29T11:36:19;13.95;;;6.20;;
74963;SDS011;63521;51.900;4.748;2023-01-29T11:41:42;15.73;;;7.13;;
74963;SDS011;63521;51.900;4.748;2023-01-29T11:44:20;12.05;;;5.80;;
74963;SDS011;63521;51.900;4.748;2023-01-29T11:46:51;16.25;;;7.05;;
74963;SDS011;63521;51.900;4.748;2023-01-29T11:49:29;14.50;;;6.95;;
74963;SDS011;63521;51.900;4.748;2023-01-29T11:51:57;13.43;;;6.80;;
74963;SDS011;63521;51.900;4.748;2023-01-29T11:54:27;14.48;;;6.82;;
74963;SDS011;63521;51.900;4.748;2023-01-29T11:56:55;14.13;;;6.50;;
74963;SDS011;63521;51.900;4.748;2023-01-29T11:59:26;13.77;;;6.70;;
74963;SDS011;63521;51.900;4.748;2023-01-29T12:01:54;15.52;;;7.15;;
74963;SDS011;63521;51.900;4.748;2023-01-29T12:04:21;13.90;;;6.90;;
74963;SDS011;63521;51.900;4.748;2023-01-29T12:06:48;15.77;;;6.80;;
74963;SDS011;63521;51.900;4.748;2023-01-29T12:09:17;15.43;;;7.53;;
74963;SDS011;63521;51.900;4.748;2023-01-29T12:11:52;13.18;;;6.07;;
74963;SDS011;63521;51.900;4.748;2023-01-29T12:17:05;12.90;;;6.22;;
74963;SDS011;63521;51.900;4.748;2023-01-29T12:22:15;13.52;;;7.03;;
74963;SDS011;63521;51.900;4.748;2023-01-29T12:24:55;13.18;;;6.55;;
74963;SDS011;63521;51.900;4.748;2023-01-29T12:30:02;15.32;;;7.63;;
74963;SDS011;63521;51.900;4.748;2023-01-29T12:32:43;15.00;;;7.03;;
74963;SDS011;63521;51.900;4.748;2023-01-29T12:38:19;14.32;;;6.82;;
74963;SDS011;63521;51.900;4.748;2023-01-29T12:40:57;13.57;;;6.68;;
74963;SDS011;63521;51.900;4.748;2023-01-29T12:45:57;15.27;;;6.82;;
74963;SDS011;63521;51.900;4.748;2023-01-29T12:50:52;14.93;;;6.95;;
74963;SDS011;63521;51.900;4.748;2023-01-29T12:53:30;14.65;;;6.72;;
74963;SDS011;63521;51.900;4.748;2023-01-29T12:56:01;13.98;;;6.82;;
74963;SDS011;63521;51.900;4.748;2023-01-29T13:01:05;13.65;;;7.03;;
74963;SDS011;63521;51.900;4.748;2023-01-29T13:03:53;14.60;;;7.20;;
74963;SDS011;63521;51.900;4.748;2023-01-29T13:06:24;15.25;;;7.20;;
74963;SDS011;63521;51.900;4.748;2023-01-29T13:13:57;14.38;;;7.30;;
74963;SDS011;63521;51.900;4.748;2023-01-29T13:16:26;14.60;;;7.32;;
74963;SDS011;63521;51.900;4.748;2023-01-29T13:21:30;16.45;;;7.75;;
74963;SDS011;63521;51.900;4.748;2023-01-29T13:24:01;15.95;;;7.25;;
74963;SDS011;63521;51.900;4.748;2023-01-29T13:26:28;14.30;;;7.68;;
74963;SDS011;63521;51.900;4.748;2023-01-29T13:28:54;16.73;;;7.78;;
74963;SDS011;63521;51.900;4.748;2023-01-29T13:31:33;16.33;;;6.97;;
74963;SDS011;63521;51.900;4.748;2023-01-29T13:36:48;16.45;;;7.25;;
74963;SDS011;63521;51.900;4.748;2023-01-29T13:39:23;13.27;;;7.45;;
74963;SDS011;63521;51.900;4.748;2023-01-29T13:41:54;15.52;;;7.35;;
74963;SDS011;63521;51.900;4.748;2023-01-29T13:46:53;15.75;;;7.93;;
74963;SDS011;63521;51.900;4.748;2023-01-29T13:49:23;14.80;;;7.60;;
74963;SDS011;63521;51.900;4.748;2023-01-29T13:51:51;14.77;;;7.55;;
74963;SDS011;63521;51.900;4.748;2023-01-29T13:54:17;14.48;;;7.75;;
74963;SDS011;63521;51.900;4.748;2023-01-29T14:00:09;15.25;;;7.82;;
74963;SDS011;63521;51.900;4.748;2023-01-29T14:02:35;13.38;;;7.38;;
74963;SDS011;63521;51.900;4.748;2023-01-29T14:08:04;15.27;;;7.18;;
74963;SDS011;63521;51.900;4.748;2023-01-29T14:10:30;17.35;;;8.07;;
74963;SDS011;63521;51.900;4.748;2023-01-29T14:17:56;14.35;;;7.57;;
74963;SDS011;63521;51.900;4.748;2023-01-29T14:20:27;15.20;;;7.40;;
74963;SDS011;63521;51.900;4.748;2023-01-29T14:22:56;17.48;;;7.95;;
74963;SDS011;63521;51.900;4.748;2023-01-29T14:25:27;17.40;;;8.55;;
74963;SDS011;63521;51.900;4.748;2023-01-29T14:27:58;14.27;;;7.35;;
74963;SDS011;63521;51.900;4.748;2023-01-29T14:30:24;13.10;;;7.00;;
74963;SDS011;63521;51.900;4.748;2023-01-29T14:32:50;14.60;;;7.13;;
74963;SDS011;63521;51.900;4.748;2023-01-29T14:35:20;16.60;;;7.40;;
74963;SDS011;63521;51.900;4.748;2023-01-29T14:37:55;14.40;;;7.65;;
74963;SDS011;63521;51.900;4.748;2023-01-29T14:40:24;15.32;;;7.18;;
74963;SDS011;63521;51.900;4.748;2023-01-29T14:42:58;14.68;;;7.10;;
74963;SDS011;63521;51.900;4.748;2023-01-29T14:45:35;12.90;;;6.80;;
74963;SDS011;63521;51.900;4.748;2023-01-29T14:48:03;13.80;;;6.55;;
74963;SDS011;63521;51.900;4.748;2023-01-29T14:50:42;14.65;;;7.30;;
74963;SDS011;63521;51.900;4.748;2023-01-29T14:56:09;15.55;;;7.57;;
74963;SDS011;63521;51.900;4.748;2023-01-29T14:58:48;12.40;;;6.95;;
74963;SDS011;63521;51.900;4.748;2023-01-29T15:01:24;14.20;;;6.78;;
74963;SDS011;63521;51.900;4.748;2023-01-29T15:04:01;13.98;;;7.10;;
74963;SDS011;63521;51.900;4.748;2023-01-29T15:06:37;13.88;;;6.50;;
74963;SDS011;63521;51.900;4.748;2023-01-29T15:09:11;14.57;;;6.95;;
74963;SDS011;63521;51.900;4.748;2023-01-29T15:11:43;12.55;;;6.63;;
74963;SDS011;63521;51.900;4.748;2023-01-29T15:14:17;13.40;;;6.72;;
74963;SDS011;63521;51.900;4.748;2023-01-29T15:19:37;14.15;;;6.35;;
74963;SDS011;63521;51.900;4.748;2023-01-29T15:24:36;15.32;;;7.47;;
74963;SDS011;63521;51.900;4.748;2023-01-29T15:27:03;11.82;;;6.55;;
74963;SDS011;63521;51.900;4.748;2023-01-29T15:29:30;11.43;;;6.53;;
74963;SDS011;63521;51.900;4.748;2023-01-29T15:31:56;15.18;;;6.82;;
74963;SDS011;63521;51.900;4.748;2023-01-29T15:34:22;12.57;;;6.38;;
74963;SDS011;63521;51.900;4.748;2023-01-29T15:36:48;13.93;;;7.50;;
74963;SDS011;63521;51.900;4.748;2023-01-29T15:39:17;12.98;;;6.97;;
74963;SDS011;63521;51.900;4.748;2023-01-29T15:41:45;12.75;;;6.78;;
74963;SDS011;63521;51.900;4.748;2023-01-29T15:44:18;13.48;;;6.47;;
74963;SDS011;63521;51.900;4.748;2023-01-29T15:47:03;13.18;;;6.90;;
74963;SDS011;63521;51.900;4.748;2023-01-29T15:49:32;14.20;;;7.28;;
74963;SDS011;63521;51.900;4.748;2023-01-29T15:52:06;13.55;;;7.15;;
74963;SDS011;63521;51.900;4.748;2023-01-29T15:54:39;13.63;;;6.68;;
74963;SDS011;63521;51.900;4.748;2023-01-29T15:57:04;15.18;;;7.00;;
74963;SDS011;63521;51.900;4.748;2023-01-29T15:59:34;12.85;;;6.38;;
74963;SDS011;63521;51.900;4.748;2023-01-29T16:02:28;14.35;;;6.57;;
74963;SDS011;63521;51.900;4.748;2023-01-29T16:04:54;15.00;;;6.45;;
74963;SDS011;63521;51.900;4.748;2023-01-29T16:07:20;13.75;;;6.85;;
74963;SDS011;63521;51.900;4.748;2023-01-29T16:09:46;14.88;;;7.00;;
74963;SDS011;63521;51.900;4.748;2023-01-29T16:12:12;12.65;;;6.40;;
74963;SDS011;63521;51.900;4.748;2023-01-29T16:14:38;14.00;;;7.18;;
74963;SDS011;63521;51.900;4.748;2023-01-29T16:17:24;12.50;;;6.70;;
74963;SDS011;63521;51.900;4.748;2023-01-29T16:19:54;15.60;;;6.70;;
74963;SDS011;63521;51.900;4.748;2023-01-29T16:22:26;13.18;;;6.80;;
74963;SDS011;63521;51.900;4.748;2023-01-29T16:24:54;13.60;;;7.35;;
74963;SDS011;63521;51.900;4.748;2023-01-29T16:27:19;14.18;;;6.07;;
74963;SDS011;63521;51.900;4.748;2023-01-29T16:29:45;12.23;;;6.43;;
74963;SDS011;63521;51.900;4.748;2023-01-29T16:32:10;12.60;;;6.85;;
74963;SDS011;63521;51.900;4.748;2023-01-29T16:34:41;12.25;;;5.97;;
74963;SDS011;63521;51.900;4.748;2023-01-29T16:37:24;13.38;;;6.50;;
74963;SDS011;63521;51.900;4.748;2023-01-29T16:40:13;12.65;;;6.97;;
74963;SDS011;63521;51.900;4.748;2023-01-29T16:42:45;16.13;;;6.88;;
74963;SDS011;63521;51.900;4.748;2023-01-29T16:45:24;13.40;;;6.65;;
74963;SDS011;63521;51.900;4.748;2023-01-29T16:47:58;14.25;;;7.50;;
74963;SDS011;63521;51.900;4.748;2023-01-29T16:50:30;12.65;;;6.03;;
74963;SDS011;63521;51.900;4.748;2023-01-29T16:53:10;14.70;;;6.82;;
74963;SDS011;63521;51.900;4.748;2023-01-29T16:55:37;14.23;;;6.47;;
74963;SDS011;63521;51.900;4.748;2023-01-29T16:58:15;13.70;;;6.55;;
74963;SDS011;63521;51.900;4.748;2023-01-29T17:00:42;13.13;;;6.72;;
74963;SDS011;63521;51.900;4.748;2023-01-29T17:03:09;15.35;;;7.25;;
74963;SDS011;63521;51.900;4.748;2023-01-29T17:05:36;12.68;;;6.85;;
74963;SDS011;63521;51.900;4.748;2023-01-29T17:08:02;12.13;;;6.35;;
74963;SDS011;63521;51.900;4.748;2023-01-29T17:10:28;13.60;;;6.63;;
74963;SDS011;63521;51.900;4.748;2023-01-29T17:15:28;16.00;;;6.82;;
74963;SDS011;63521;51.900;4.748;2023-01-29T17:18:13;13.52;;;6.90;;
74963;SDS011;63521;51.900;4.748;2023-01-29T17:20:47;12.45;;;6.25;;
74963;SDS011;63521;51.900;4.748;2023-01-29T17:23:13;14.23;;;6.68;;
74963;SDS011;63521;51.900;4.748;2023-01-29T17:25:39;13.52;;;6.30;;
74963;SDS011;63521;51.900;4.748;2023-01-29T17:28:08;13.32;;;6.45;;
74963;SDS011;63521;51.900;4.748;2023-01-29T17:30:36;14.80;;;7.22;;
74963;SDS011;63521;51.900;4.748;2023-01-29T17:33:12;13.63;;;6.25;;